Live aus Altenrhein
LIVE
LSZR 171120Z VRB02KT CAVOK 24/16 Q1020 NOSIG RMK H

People´s Info Center:

Öffnungszeiten Mo-Fr, 8-18 Uhr

 

info@peoples.ch

 
Aus Österreich:

T: +43 (0)5572 203 610

 

Aus CH / LI / DE:

T: +41 (0)71 858 51 60

 

Flugzeuge Embraer 170

Laura und Nora.

Die People's Viennaline bedient die Strecke Altenrhein-Wien 4 Mal täglich und bietet zudem zahlreiche Ferienflüge ab Altenrhein in den Sommermonaten an. Die zwei eingesetzten Embraer 170 mit 76 Sitzplätzen gehören zu den modernsten Regionaljets. Die Jets des brasilianischen Herstellers Embraer erlauben mit ihren zwei Triebwerken eine Reisegeschwindigkeit von 851 km/h. Die Flugdauer zwischen Altenrhein und z.B. der österreichischen Bundeshauptstadt beträgt dadurch nurmehr rund 60 Minuten.

 

Die 30m langen Flugzeuge haben eine Spannweite von 26m und bieten Platz für 76 Passagiere. Sie geniessen dank moderner Ausstattung höchsten Reise-Komfort.

 

Auf der offiziellen Website von Embraer finden Sie detaillierte Informationen zum Flugzeugmodell Embraer 170.